Central Coast CX #6

Cyclocross: Sunday Oct. 8, 2017 – Schedule
Part of the 2017-18 CCCX Cyclocross Series

Results: Group B

Men B

Place # First Last City Cat Team License Age Laps @ Time Points
1 21 Nate THALHAMER Santa Rosa, CA 4 Top Club 0457848 14 8 @ 00:46:40 50
2 2 Matthew WHITBY Stanford, CA 5 0459226 28 8 @ 00:48:41 47
3 92 James PAPPE Bakersfield, CA 3 Cannondale Capo p/b GQ-6 Masters Team 0094207 54 8 @ 00:49:20 45
4 57 Alan BARBARAN 5 King Kog Oakland 8888105 8 @ 00:49:30 44
5 85 Gabe MULTER Santa Cruz, CA 4 0331142 21 8 @ 00:49:32 43
6 93 Alexi TAYLOR 5 8888606 8 @ 00:49:33 42
7 46 David TRIPIER Los Gatos, CA 3 0144645 52 8 @ 00:50:06 41
8 94 Nicolas TAYLOR 5 8888607 8 @ 00:50:41 40
9 91 Travis ALONGI Gilroy, CA 4 The Fast Forward 0304690 32 8 @ 00:50:44 39
10 87 Todd FORD Morgan Hill, CA 4 Cycle Sport - Specialized p/b Muscle Milk 0378340 33 8 @ 00:50:45 38
11 9 Wayne VANAMAN Emeryville, CA 5 King Kog 0468213 34 8 @ 00:51:53 37
12 45 Brian KALCIC Sunnyvale, CA 5 0516782 16 8 @ 00:53:12 36
13 20 Chris TORP 5 King Kog 8888209 7 @ 00:48:59 35
DNP 7 Tyler ELLIOTT Oakland, CA 5 King Kog 0541431 30 - 1
DNP 77 Corey DOMAN Stockton, CA 5 0518004 27 - 1
Field: 15 of 99

Masters Men 35+ B

Place # First Last City Cat Team License Age Laps @ Time Points
1 359 Billy KOSTRIKIN Modesto, CA 5 0019699 43 8 @ 00:48:00 50
2 325 Bernardo TAPIA Redwood City, CA 4 SunPower Racing 0456472 44 8 @ 00:50:01 47
3 321 Robert HUNT San Jose, CA 4 Monster Media Racing 0156438 43 8 @ 00:50:12 45
4 357 David POUNCY Alameda, CA 3 0248071 42 8 @ 00:51:10 44
5 333 Martin KOZERA San Carlos, CA 2 Pen Velo Racing/Summit Bicycles 0261903 44 8 @ 00:51:15 43
6 352 David PORTER San Jose, CA 5 Pen Velo Racing/Summit Bicycles 0126711 44 8 @ 00:51:18 42
7 311 Adolfo WRIEDT 5 8888210 8 @ 00:51:21 41
8 353 John WILDE San Francisco, CA 3 0225246 41 8 @ 00:51:32 40
9 312 Cliff GOLZ Santa Cruz, CA 3 The Pony Shop 0254308 42 8 @ 00:52:28 39
10 360 Covey POTTER 5 Caletti 8888608 7 @ 00:46:35 38
11 334 Ben POLACCO 5 8888609 7 @ 00:47:16 37
12 332 Neil BARTLEY San Jose, CA 3 ThirstyBear p/b Akamai 0209268 39 7 @ 00:47:19 36
13 314 Timothy TURNBULL Castroville, CA 4 Los Gatos Bicycle Racing Club 0309759 52 6 @ 00:52:10 35
DNP 355 Nathan SHAY Kansas City, MO 3 SquadraSF p/b Terun 0355690 40 - 1
Field: 14 of 100

Masters Men 45+ B

Place # First Last City Cat Team License Age Laps @ Time Points
1 672 Jim PERREIRA San Jose, CA 5 The Fast Forward 0434736 51 8 @ 00:50:43 50
2 616 Scott FREIERMUTH Menlo Park, CA 4 CoreTechs Cycling Team 0059509 49 8 @ 00:51:40 47
3 624 Andrew YEE Mountain View, CA 3 Hup United 0050693 44 8 @ 00:51:55 45
4 610 Andrew HORVAI San Mateo, CA 3 Pen Velo Racing/Summit Bicycles 0418485 50 8 @ 00:52:04 44
5 650 Brian GOKEY San Jose, CA 4 0392565 45 8 @ 00:52:23 43
6 602 Scott ZAVACK Morgan Hill, CA 4 0226979 50 8 @ 00:52:29 42
7 654 Michael LOFTESNES Martinez, CA 4 0053118 52 8 @ 00:52:35 41
8 669 Jeff HANE Sunnyvale, CA 2 Team Roaring Mouse 0014909 53 7 @ 00:46:22 40
9 604 Boris FOELSCH Palo Alto, CA 5 0360394 53 7 @ 00:46:24 39
10 605 Raymond MENDOZA Santa Cruz, CA 4 0024025 52 7 @ 00:47:14 38
11 621 Shaun BAGLEY Visalia, CA 2 HSR Racing p/b Birdworx 0060730 49 7 @ 00:47:25 37
12 652 John BONO Santa Cruz, CA 4 0303921 49 7 @ 00:47:37 36
13 623 Frank KALCIC 5 Voler/Clif/HRS/Rock Lobster 7 @ 00:48:05 35
14 615 Michael SCHALLER Campbell, CA 4 0253585 50 7 @ 00:48:10 34
15 622 Serge PLASSCHAERT San Jose, CA 4 Pen Velo Racing/Summit Bicycles 0195521 51 7 @ 00:48:37 33
16 655 Shawn VARNER Templeton, CA 4 ChristianCycling Colorado 0096154 48 7 @ 00:49:25 32
17 668 Juan ORTIZ Castro Valley, CA 4 0026838 50 7 @ 00:51:13 31
18 601 Paul YOUNG Morgan Hill, CA 3 The Fast Forward 0378462 49 6 @ 00:46:35 30
Field: 18 of 100

Single Speed Men B

Place # First Last City Cat Team License Age Laps @ Time Points
1 201 Jason PRATER Oakland, CA 3 RMRC p/b Turin Bicycles 0244064 34 8 @ 00:50:07 50
2 294 Abdulgader ALALLI Stanford, CA 5 Stanford University 0434565 32 8 @ 00:51:50 47
3 250 Brian FERRARIO San Jose, CA 3 Menlo Velo 0088248 51 8 @ 00:51:57 45
4 264 Christian BRYAN 5 8888208 7 @ 00:47:24 44
5 202 Kevin PELLEY Salinas, CA 5 0206394 28 7 @ 00:47:41 43
Field: 5 of 100
Table notes: